KRHV 220447Z 00000KT 10SM SKC 18/12 A2998 RMK LAST